O' Neill, Nebraska
Current Conditions -  °F | °C
As of 2:15 PM on Friday 19 Dec 2014 (Local Time) from KONL Reporting Station
Haze Haze  
Wind Chill: 22°   Ceiling: 300
Heat Index: 28°   Visibility: 2.5mi
Dew Point: 28°   Wind: 6mph
Humidity: 100%   Direction: 190°S
Pressure: 30.02"   Gusts: NA
Location:  42.6164°N, 98.6183°W
Report Text: KONL 192015Z AUTO 19005KT 2 1/2SM BR OVC003 M02/M02 A3002 RMK AO2 T10201020
Loading
Personal Weather Stations






























Interactive Weather Map New forecast layout! Learn more

10-Day Weather Forecast

Advertisements
Track Severe Weather on mobile